Airport View

Enter AWOS ICAO identifier for current METAR.

ex. KFNL

KPIT 250451Z 17007KT 10SM SCT130 BKN210 06/M06 A2975 RMK AO2 SLP085 T00611061 401171033

25 Nov 2017 05:47

Phone: 412-472-0145

Other Area AWOS: 42PN - KAGC - KBVI - KBTP

TAF AMD KPIT 250236Z 2503/2606 19006KT P6SM FEW250 WS020/22035KT FM251500 24009G16KT P6SM OVC030 FM252300 28009KT P6SM BKN025